As Valentia — A8SO8 — position and weather

sailwx.info

Track history (hours):
 
Tides and Currents Weather Stations Pressure Air Temp Water Temp Dewpoint Dewpoint Depression Visibility Wind Speed Wind Dir Waves Ship Positions

As Valentia

Last reported at 2016-Sep-25 12:33 UTC. Time now 2016-Sep-25 14:03 UTC.
Position N 39°17' W 075°21'.

Length 190 m; draft 8 m.

Type: Cargo ship. MMSI: 636091770.

Date/timePositionNaut miles runAvg speedWind from/ knotsBaromVisibWave heightAir tempDewpointWater temp
2016-Sep-25 12:33N 39°17' W 075°21'1312.9
2016-Sep-25 11:33N 39°06' W 075°12'1312.6
2016-Sep-25 10:33N 38°54' W 075°05'124 9.4
2016-Sep-24 21:24N 36°56' W 075°55'2010.2
2016-Sep-24 19:25N 36°57' W 076°20'7 8.2
2016-Sep-24 18:33N 36°50' W 076°18'3 3.4
2016-Sep-24 17:34N 36°47' W 076°19'1 0.5
2016-Sep-24 16:32N 36°47' W 076°18'0 0.0
2016-Sep-24 14:32N 36°47' W 076°18'0 0.0
2016-Sep-24 12:32N 36°47' W 076°18'0 0.0
2016-Sep-24 10:32N 36°47' W 076°18'0 0.0
2016-Sep-24 09:32N 36°47' W 076°18'0 0.0
2016-Sep-24 03:32N 36°47' W 076°18'0 0.0
2016-Sep-24 02:32N 36°47' W 076°18'0 0.0
2016-Sep-24 01:32N 36°47' W 076°18'0 0.0
2016-Sep-24 00:32N 36°47' W 076°18'0 0.0
2016-Sep-23 19:32N 36°47' W 076°18'0 0.0
2016-Sep-23 17:32N 36°47' W 076°18'0 0.0
2016-Sep-23 16:32N 36°47' W 076°18'0 0.0
2016-Sep-23 15:32N 36°47' W 076°18'0 0.0
2016-Sep-23 13:32N 36°47' W 076°18'0 0.0
2016-Sep-23 09:32N 36°47' W 076°18'0 0.0
2016-Sep-23 06:26N 36°47' W 076°18'0 0.0
2016-Sep-23 04:29N 36°47' W 076°18'0 0.0
2016-Sep-23 03:32N 36°47' W 076°18'0 0.0
2016-Sep-23 02:29N 36°47' W 076°18'0 0.0
2016-Sep-23 01:32N 36°47' W 076°18'0 0.0
2016-Sep-23 00:32N 36°47' W 076°18'0 0.0
2016-Sep-22 23:32N 36°47' W 076°18'0 0.0
2016-Sep-22 20:32N 36°47' W 076°18'0 0.0
2016-Sep-22 12:32N 36°47' W 076°18'0 0.0
2016-Sep-22 04:32N 36°47' W 076°18'0 0.0
2016-Sep-22 03:32N 36°47' W 076°18'0 0.0
2016-Sep-22 00:32N 36°47' W 076°18'0 0.0
2016-Sep-21 23:32N 36°47' W 076°18'0 0.0
2016-Sep-21 22:32N 36°47' W 076°18'0 0.0
2016-Sep-21 19:32N 36°47' W 076°18'0 0.0
2016-Sep-21 16:32N 36°47' W 076°18'0 0.0
2016-Sep-21 09:32N 36°47' W 076°18'0 0.0
2016-Sep-21 08:32N 36°47' W 076°18'0 0.0
2016-Sep-21 05:32N 36°47' W 076°18'0 0.0
2016-Sep-21 03:32N 36°47' W 076°18'0 0.0
2016-Sep-21 02:32N 36°47' W 076°18'0 0.0
2016-Sep-20 17:32N 36°47' W 076°18'0 0.0
2016-Sep-20 14:32N 36°47' W 076°18'0 0.0
2016-Sep-20 13:32N 36°47' W 076°18'0 0.0
2016-Sep-20 10:33N 36°47' W 076°18'9 4.3
2016-Sep-20 08:28N 36°55' W 076°20'11 9.2
2016-Sep-20 07:17N 36°59' W 076°07'811.6
2016-Sep-20 06:33N 36°56' W 075°57'125 6.8
2016-Sep-19 12:00N 35°54' W 073°42'200 8.3 150 / 181016.0 5.4 0.528.025.228.0
2016-Sep-18 12:00N 32°48' W 072°12'26711.1 130 / 101017.0 5.4 1.027.024.127.0
2016-Sep-17 12:00N 29°18' W 075°24'28210.7 220 / 181014.0 5.4 0.529.026.228.0
2016-Sep-16 09:33N 26°15' W 079°27'2512.7
2016-Sep-16 07:32N 25°50' W 079°31'  
Track history (hours):
 
Tides and Currents Weather Stations Pressure Air Temp Water Temp Dewpoint Dewpoint Depression Visibility Wind Speed Wind Dir Waves Ship Positions

As Valentia

Last reported at 2016-Sep-25 12:33 UTC. Time now 2016-Sep-25 14:03 UTC.
Position N 39°17' W 075°21'.

Length 190 m; draft 8 m.

Type: Cargo ship. MMSI: 636091770.

Date/timePositionNaut miles runAvg speedWind from/ knotsBaromVisibWave heightAir tempDewpointWater temp
2016-Sep-25 12:33N 39°17' W 075°21'1312.9
2016-Sep-25 11:33N 39°06' W 075°12'1312.6
2016-Sep-25 10:33N 38°54' W 075°05'124 9.4
2016-Sep-24 21:24N 36°56' W 075°55'2010.2
2016-Sep-24 19:25N 36°57' W 076°20'7 8.2
2016-Sep-24 18:33N 36°50' W 076°18'3 3.4
2016-Sep-24 17:34N 36°47' W 076°19'1 0.5
2016-Sep-24 16:32N 36°47' W 076°18'0 0.0
2016-Sep-24 14:32N 36°47' W 076°18'0 0.0
2016-Sep-24 12:32N 36°47' W 076°18'0 0.0
2016-Sep-24 10:32N 36°47' W 076°18'0 0.0
2016-Sep-24 09:32N 36°47' W 076°18'0 0.0
2016-Sep-24 03:32N 36°47' W 076°18'0 0.0
2016-Sep-24 02:32N 36°47' W 076°18'0 0.0
2016-Sep-24 01:32N 36°47' W 076°18'0 0.0
2016-Sep-24 00:32N 36°47' W 076°18'0 0.0
2016-Sep-23 19:32N 36°47' W 076°18'0 0.0
2016-Sep-23 17:32N 36°47' W 076°18'0 0.0
2016-Sep-23 16:32N 36°47' W 076°18'0 0.0
2016-Sep-23 15:32N 36°47' W 076°18'0 0.0
2016-Sep-23 13:32N 36°47' W 076°18'0 0.0
2016-Sep-23 09:32N 36°47' W 076°18'0 0.0
2016-Sep-23 06:26N 36°47' W 076°18'0 0.0
2016-Sep-23 04:29N 36°47' W 076°18'0 0.0
2016-Sep-23 03:32N 36°47' W 076°18'0 0.0
2016-Sep-23 02:29N 36°47' W 076°18'0 0.0
2016-Sep-23 01:32N 36°47' W 076°18'0 0.0
2016-Sep-23 00:32N 36°47' W 076°18'0 0.0
2016-Sep-22 23:32N 36°47' W 076°18'0 0.0
2016-Sep-22 20:32N 36°47' W 076°18'0 0.0
2016-Sep-22 12:32N 36°47' W 076°18'0 0.0
2016-Sep-22 04:32N 36°47' W 076°18'0 0.0
2016-Sep-22 03:32N 36°47' W 076°18'0 0.0
2016-Sep-22 00:32N 36°47' W 076°18'0 0.0
2016-Sep-21 23:32N 36°47' W 076°18'0 0.0
2016-Sep-21 22:32N 36°47' W 076°18'0 0.0
2016-Sep-21 19:32N 36°47' W 076°18'0 0.0
2016-Sep-21 16:32N 36°47' W 076°18'0 0.0
2016-Sep-21 09:32N 36°47' W 076°18'0 0.0
2016-Sep-21 08:32N 36°47' W 076°18'0 0.0
2016-Sep-21 05:32N 36°47' W 076°18'0 0.0
2016-Sep-21 03:32N 36°47' W 076°18'0 0.0
2016-Sep-21 02:32N 36°47' W 076°18'0 0.0
2016-Sep-20 17:32N 36°47' W 076°18'0 0.0
2016-Sep-20 14:32N 36°47' W 076°18'0 0.0
2016-Sep-20 13:32N 36°47' W 076°18'0 0.0
2016-Sep-20 10:33N 36°47' W 076°18'9 4.3
2016-Sep-20 08:28N 36°55' W 076°20'11 9.2
2016-Sep-20 07:17N 36°59' W 076°07'811.6
2016-Sep-20 06:33N 36°56' W 075°57'125 6.8
2016-Sep-19 12:00N 35°54' W 073°42'200 8.3 150 / 181016.0 5.4 0.528.025.228.0
2016-Sep-18 12:00N 32°48' W 072°12'26711.1 130 / 101017.0 5.4 1.027.024.127.0
2016-Sep-17 12:00N 29°18' W 075°24'28210.7 220 / 181014.0 5.4 0.529.026.228.0
2016-Sep-16 09:33N 26°15' W 079°27'2512.7
2016-Sep-16 07:32N 25°50' W 079°31'  

Dump ship's entire track history